Time;durP1;ratioP1;P1;durP2;ratioP2;P2;SDS_P1;SDS_P2;PMS_P1;PMS_P2;Temp;Humidity;BMP_temperature;BMP_pressure;BME280_temperature;BME280_humidity;BME280_pressure;Samples;Min_cycle;Max_cycle;Signal;HPM_P1;HPM_P2
2022/10/22 00:02:23;;;;;;;12.23;6.80;;;18.10;54.40;;;;;;5093135;28;20016;-80
2022/10/22 00:04:50;;;;;;;10.95;6.78;;;18.40;54.20;;;;;;5093366;28;20113;-81
2022/10/22 00:07:17;;;;;;;9.55;6.97;;;18.60;53.80;;;;;;5094026;28;20023;-81
2022/10/22 00:09:43;;;;;;;12.10;8.05;;;18.80;53.80;;;;;;5092907;28;20470;-80
2022/10/22 00:12:09;;;;;;;16.75;8.05;;;19.10;53.60;;;;;;5092819;28;20031;-80
2022/10/22 00:14:35;;;;;;;12.02;7.40;;;19.30;53.20;;;;;;5091940;28;20027;-80
2022/10/22 00:17:02;;;;;;;11.93;7.72;;;19.00;52.40;;;;;;5092470;28;20018;-81
2022/10/22 00:19:27;;;;;;;11.77;7.47;;;18.40;53.80;;;;;;5092177;28;20052;-80
2022/10/22 00:21:53;;;;;;;12.05;7.57;;;18.40;54.30;;;;;;5093736;28;20103;-81
2022/10/22 00:24:19;;;;;;;11.93;7.18;;;18.60;53.90;;;;;;5092723;28;20076;-80
2022/10/22 00:26:45;;;;;;;12.88;8.05;;;18.90;54.00;;;;;;5093607;28;20020;-80
2022/10/22 00:29:11;;;;;;;11.75;7.38;;;19.10;54.20;;;;;;5092311;28;20047;-80
2022/10/22 00:31:36;;;;;;;12.35;7.80;;;18.90;53.80;;;;;;5093669;28;20375;-80
2022/10/22 00:34:02;;;;;;;12.40;8.27;;;18.90;53.50;;;;;;5093876;28;20023;-81
2022/10/22 00:36:28;;;;;;;10.75;7.72;;;19.10;53.90;;;;;;5092390;28;20020;-81
2022/10/22 00:38:53;;;;;;;13.40;7.70;;;19.20;53.70;;;;;;5092398;28;20038;-80
2022/10/22 00:41:20;;;;;;;11.13;7.47;;;19.00;53.40;;;;;;5093527;28;20388;-81
2022/10/22 00:44:00;;;;;;;13.88;8.32;;;18.70;53.40;;;;;;5092301;28;20105;-80
2022/10/22 00:46:27;;;;;;;12.70;7.25;;;18.20;54.30;;;;;;5092104;28;20020;-81
2022/10/22 00:48:55;;;;;;;13.35;8.55;;;18.30;54.20;;;;;;5092948;28;20024;-80
2022/10/22 00:51:24;;;;;;;12.93;7.53;;;18.60;54.70;;;;;;5091769;28;20072;-81
2022/10/22 00:53:54;;;;;;;10.80;6.78;;;18.60;54.10;;;;;;5091784;28;20462;-80
2022/10/22 00:56:21;;;;;;;11.52;7.15;;;18.30;54.00;;;;;;5093234;28;20016;-80
2022/10/22 00:58:52;;;;;;;13.07;7.75;;;18.40;55.20;;;;;;5092547;28;20043;-80
2022/10/22 01:01:21;;;;;;;;;;;18.70;54.40;;;;;;5091550;28;20375;-80
2022/10/22 01:03:48;;;;;;;10.70;7.28;;;18.80;54.20;;;;;;5092388;28;19904;-81
2022/10/22 01:06:25;;;;;;;11.02;7.60;;;18.60;54.30;;;;;;5091400;28;20016;-80
2022/10/22 01:09:29;;;;;;;12.02;7.57;;;18.80;54.30;;;;;;5091793;28;20024;-80
2022/10/22 01:12:02;;;;;;;12.32;6.95;;;19.00;53.90;;;;;;5093114;28;20043;-80
2022/10/22 01:14:39;;;;;;;12.52;7.32;;;18.70;54.20;;;;;;5092827;28;20020;-79
2022/10/22 01:17:19;;;;;;;11.27;6.72;;;18.70;54.60;;;;;;5091676;28;20035;-79
2022/10/22 01:19:48;;;;;;;10.57;7.28;;;18.70;54.50;;;;;;5092740;28;20040;-81
2022/10/22 01:22:19;;;;;;;10.38;7.38;;;18.50;54.40;;;;;;5093349;28;20457;-80
2022/10/22 01:25:06;;;;;;;10.10;6.75;;;18.70;54.30;;;;;;5091741;28;20136;-80
2022/10/22 01:28:01;;;;;;;12.30;6.60;;;18.70;54.20;;;;;;5093274;28;20016;-80
2022/10/22 01:30:27;;;;;;;10.65;6.45;;;18.40;55.00;;;;;;4994584;28;20040;-80
2022/10/22 01:33:00;;;;;;;10.98;6.63;;;18.30;55.40;;;;;;5010740;28;20034;-79
2022/10/22 01:35:31;;;;;;;9.98;6.57;;;18.20;55.50;;;;;;5011163;28;20030;-80
2022/10/22 01:38:01;;;;;;;10.02;6.68;;;18.10;54.90;;;;;;5011240;28;20064;-80
2022/10/22 01:40:28;;;;;;;10.85;6.63;;;17.90;55.20;;;;;;5011187;28;20417;-80
2022/10/22 01:42:59;;;;;;;11.43;6.88;;;18.10;55.00;;;;;;4994608;28;20092;-80
2022/10/22 01:45:25;;;;;;;10.65;6.63;;;18.30;55.40;;;;;;4994301;28;20427;-81
2022/10/22 01:48:09;;;;;;;10.55;6.88;;;18.40;54.70;;;;;;5010153;28;20033;-80
2022/10/22 01:50:41;;;;;;;10.52;7.35;;;18.10;55.30;;;;;;5010300;28;20033;-80
2022/10/22 01:53:27;;;;;;;10.70;6.63;;;17.80;56.20;;;;;;4993522;28;20026;-80
2022/10/22 01:56:13;;;;;;;10.38;7.05;;;18.00;56.10;;;;;;4993745;28;20033;-80
2022/10/22 01:58:56;;;;;;;14.05;8.15;;;18.20;55.80;;;;;;5010613;28;20392;-80
2022/10/22 02:01:27;;;;;;;14.02;7.10;;;18.50;55.30;;;;;;5010792;28;20104;-81
2022/10/22 02:04:04;;;;;;;11.07;7.00;;;18.70;55.00;;;;;;5010932;28;20022;-81
2022/10/22 02:06:32;;;;;;;11.75;7.15;;;18.70;54.70;;;;;;5007264;28;20097;-80
2022/10/22 02:09:00;;;;;;;12.10;6.82;;;18.60;55.00;;;;;;5092813;28;20407;-81
2022/10/22 02:11:27;;;;;;;13.98;7.25;;;18.70;54.60;;;;;;5112540;28;20084;-81
2022/10/22 02:14:00;;;;;;;11.48;6.97;;;18.50;55.00;;;;;;5113199;28;20096;-80
2022/10/22 02:16:40;;;;;;;10.65;6.72;;;18.40;55.40;;;;;;5107334;28;20056;-81
2022/10/22 02:19:14;;;;;;;11.93;7.07;;;18.50;54.80;;;;;;5111862;28;20020;-80
2022/10/22 02:21:40;;;;;;;9.27;6.43;;;18.20;54.50;;;;;;5111660;28;20047;-81
2022/10/22 02:24:06;;;;;;;9.75;6.30;;;18.00;55.00;;;;;;5111399;28;20023;-81
2022/10/22 02:26:42;;;;;;;11.65;7.47;;;18.10;54.90;;;;;;5113408;28;20486;-81
2022/10/22 02:29:34;;;;;;;10.52;6.43;;;18.50;54.60;;;;;;5115346;28;20072;-80
2022/10/22 02:32:02;;;;;;;10.57;6.47;;;18.70;54.20;;;;;;5114883;28;20042;-81
2022/10/22 02:34:30;;;;;;;12.05;6.75;;;18.70;54.20;;;;;;5116405;28;20019;-80
2022/10/22 02:36:58;;;;;;;11.93;6.82;;;18.70;54.30;;;;;;5116584;28;20054;-81
2022/10/22 02:39:25;;;;;;;11.70;6.88;;;18.80;54.20;;;;;;5116406;28;20016;-81
2022/10/22 02:41:51;;;;;;;11.18;6.60;;;18.90;53.90;;;;;;5116315;28;20035;-80
2022/10/22 02:44:20;;;;;;;12.02;6.78;;;19.00;53.50;;;;;;5114997;28;20342;-80
2022/10/22 02:46:46;;;;;;;10.57;6.50;;;18.70;54.10;;;;;;5116276;28;20408;-81
2022/10/22 02:49:11;;;;;;;11.93;7.35;;;18.60;54.60;;;;;;5116089;28;20068;-80
2022/10/22 02:51:37;;;;;;;10.25;7.15;;;18.60;54.60;;;;;;5114694;28;20124;-81
2022/10/22 02:54:03;;;;;;;12.20;7.50;;;18.80;54.10;;;;;;5114097;28;20015;-80
2022/10/22 02:56:28;;;;;;;8.45;5.97;;;18.80;53.70;;;;;;5114605;28;20026;-80
2022/10/22 02:58:54;;;;;;;9.27;6.60;;;18.60;54.50;;;;;;5115521;28;20022;-80
2022/10/22 03:01:20;;;;;;;12.23;6.78;;;18.40;54.60;;;;;;5114967;28;20028;-82
2022/10/22 03:03:45;;;;;;;12.52;7.03;;;18.20;54.60;;;;;;5115665;28;20020;-81
2022/10/22 03:06:11;;;;;;;16.58;9.23;;;18.00;55.40;;;;;;5114600;28;20020;-80
2022/10/22 03:08:37;;;;;;;17.35;10.68;;;18.10;54.90;;;;;;5115668;27;20024;-81
2022/10/22 03:11:02;;;;;;;37.45;21.98;;;18.00;55.00;;;;;;5114316;28;20492;-80
2022/10/22 03:13:28;;;;;;;39.40;24.00;;;17.90;54.70;;;;;;5115243;28;20031;-80
2022/10/22 03:15:54;;;;;;;40.20;24.15;;;18.00;54.60;;;;;;5115622;28;20016;-80
2022/10/22 03:18:19;;;;;;;39.05;22.70;;;18.10;54.40;;;;;;5115686;28;20047;-80
2022/10/22 03:20:45;;;;;;;40.75;22.45;;;18.20;54.20;;;;;;5115362;28;20043;-80
2022/10/22 03:23:13;;;;;;;33.33;19.02;;;18.20;54.20;;;;;;5115259;28;20019;-81
2022/10/22 03:25:42;;;;;;;28.33;17.38;;;18.10;54.00;;;;;;5115499;28;20024;-80
2022/10/22 03:28:09;;;;;;;24.27;13.02;;;17.90;54.20;;;;;;5113869;28;20039;-81
2022/10/22 03:30:35;;;;;;;17.23;10.90;;;17.70;54.60;;;;;;5114305;28;20142;-80
2022/10/22 03:33:01;;;;;;;16.23;9.57;;;17.50;55.70;;;;;;5115554;28;20098;-81
2022/10/22 03:35:27;;;;;;;13.13;8.30;;;17.40;55.40;;;;;;5115511;28;20026;-81
2022/10/22 03:37:53;;;;;;;12.57;8.10;;;17.10;55.90;;;;;;5115484;28;20024;-82
2022/10/22 03:40:19;;;;;;;11.30;7.70;;;17.10;56.20;;;;;;5115221;28;20062;-80
2022/10/22 03:42:45;;;;;;;12.32;8.15;;;17.20;56.00;;;;;;5115382;28;20015;-81
2022/10/22 03:45:11;;;;;;;12.20;7.88;;;17.40;55.80;;;;;;5113779;28;20020;-81
2022/10/22 03:47:37;;;;;;;13.80;8.50;;;17.60;55.20;;;;;;5114812;28;20020;-81
2022/10/22 03:50:04;;;;;;;14.85;9.40;;;17.70;55.00;;;;;;5115014;28;20023;-81
2022/10/22 03:52:35;;;;;;;11.43;7.93;;;17.70;54.60;;;;;;5114662;28;20043;-81
2022/10/22 03:55:01;;;;;;;13.48;7.95;;;17.80;54.60;;;;;;5113500;28;20024;-81
2022/10/22 03:57:27;;;;;;;11.55;7.97;;;17.80;54.40;;;;;;5114739;28;20027;-81
2022/10/22 03:59:52;;;;;;;12.70;9.23;;;17.70;54.50;;;;;;5114457;28;20106;-80
2022/10/22 04:02:18;;;;;;;16.70;7.95;;;17.80;54.50;;;;;;5114883;28;20104;-81
2022/10/22 04:04:44;;;;;;;12.80;8.18;;;17.80;54.30;;;;;;5112967;28;20023;-80
2022/10/22 04:07:09;;;;;;;14.05;8.90;;;17.60;54.30;;;;;;5113340;28;20061;-81
2022/10/22 04:09:35;;;;;;;13.50;8.32;;;17.50;54.80;;;;;;5112348;28;20046;-81
2022/10/22 04:12:01;;;;;;;12.98;8.50;;;17.50;55.00;;;;;;5113006;28;20032;-81
2022/10/22 04:14:27;;;;;;;12.43;8.13;;;17.50;54.80;;;;;;5114057;28;20019;-80
2022/10/22 04:16:53;;;;;;;13.93;7.63;;;17.40;54.70;;;;;;5113578;28;20028;-80
2022/10/22 04:19:19;;;;;;;13.93;7.18;;;17.40;55.00;;;;;;5113212;28;20020;-80
2022/10/22 04:21:44;;;;;;;13.88;7.90;;;17.30;55.10;;;;;;5114483;28;20374;-80
2022/10/22 04:24:10;;;;;;;13.65;7.65;;;17.20;55.10;;;;;;5113035;28;20023;-80
2022/10/22 04:26:36;;;;;;;15.05;7.97;;;17.10;55.30;;;;;;5113180;28;20032;-80
2022/10/22 04:29:02;;;;;;;12.63;7.65;;;17.10;55.40;;;;;;5113153;28;20027;-80
2022/10/22 04:31:27;;;;;;;14.00;8.40;;;17.00;55.40;;;;;;5112795;28;20458;-80
2022/10/22 04:33:55;;;;;;;12.23;7.80;;;17.00;55.50;;;;;;5113106;28;20019;-81
2022/10/22 04:36:21;;;;;;;12.88;8.98;;;16.90;55.70;;;;;;5114921;28;20145;-80
2022/10/22 04:38:53;;;;;;;11.82;8.48;;;16.90;55.60;;;;;;5112682;28;20020;-80
2022/10/22 04:41:28;;;;;;;11.52;7.75;;;16.90;55.40;;;;;;5113195;28;20043;-81
2022/10/22 04:43:55;;;;;;;13.27;8.27;;;16.90;55.40;;;;;;5112610;28;20472;-81
2022/10/22 04:46:21;;;;;;;14.50;8.30;;;16.80;55.60;;;;;;5113705;28;20020;-81
2022/10/22 04:48:47;;;;;;;13.82;7.78;;;16.90;55.10;;;;;;5112105;28;20373;-81
2022/10/22 04:51:15;;;;;;;12.27;7.72;;;16.60;56.40;;;;;;5111540;28;20454;-80
2022/10/22 04:53:41;;;;;;;12.07;8.02;;;16.60;56.90;;;;;;5112126;28;20084;-79
2022/10/22 04:56:10;;;;;;;13.07;8.50;;;16.80;56.20;;;;;;5112098;28;20388;-79
2022/10/22 04:58:36;;;;;;;12.80;8.43;;;16.80;55.60;;;;;;5112991;28;20019;-80
2022/10/22 05:01:19;;;;;;;12.65;8.75;;;16.80;55.40;;;;;;5112936;28;20373;-80
2022/10/22 05:03:47;;;;;;;12.57;8.50;;;16.70;55.30;;;;;;5112108;28;20458;-81
2022/10/22 05:06:13;;;;;;;12.23;7.82;;;16.60;55.30;;;;;;5111859;28;20027;-81
2022/10/22 05:08:39;;;;;;;14.02;8.20;;;16.50;55.60;;;;;;5112030;28;20038;-81
2022/10/22 05:11:11;;;;;;;14.90;8.57;;;16.50;56.00;;;;;;5113755;28;20342;-81
2022/10/22 05:13:37;;;;;;;14.27;8.23;;;16.50;56.10;;;;;;5113772;28;20511;-81
2022/10/22 05:16:03;;;;;;;13.48;8.75;;;16.50;55.80;;;;;;5112075;28;20023;-80
2022/10/22 05:18:29;;;;;;;16.42;8.93;;;16.60;55.70;;;;;;5111589;28;20023;-80
2022/10/22 05:20:54;;;;;;;14.60;9.75;;;16.70;55.60;;;;;;5112901;28;20043;-81
2022/10/22 05:23:20;;;;;;;16.65;9.40;;;16.70;55.60;;;;;;5113589;28;20024;-79
2022/10/22 05:25:46;;;;;;;14.38;8.85;;;16.60;55.30;;;;;;5113487;28;20019;-80
2022/10/22 05:28:11;;;;;;;15.05;9.48;;;16.50;55.50;;;;;;5113382;28;20022;-81
2022/10/22 05:30:37;;;;;;;15.90;8.95;;;16.40;55.60;;;;;;5112539;28;20020;-80
2022/10/22 05:33:03;;;;;;;15.38;9.43;;;16.40;55.60;;;;;;5111573;28;20020;-80
2022/10/22 05:35:28;;;;;;;17.67;9.75;;;16.40;55.80;;;;;;5111788;28;20114;-80
2022/10/22 05:37:54;;;;;;;13.50;9.07;;;16.40;55.90;;;;;;5112816;28;20612;-80
2022/10/22 05:40:19;;;;;;;15.85;10.02;;;16.50;55.80;;;;;;5111889;28;20038;-80
2022/10/22 05:42:45;;;;;;;16.33;9.90;;;16.40;55.80;;;;;;5111575;28;20123;-81
2022/10/22 05:45:11;;;;;;;15.90;9.38;;;16.50;55.90;;;;;;5111989;28;20027;-81
2022/10/22 05:47:36;;;;;;;16.80;9.43;;;16.40;56.70;;;;;;5111858;28;20374;-80
2022/10/22 05:50:02;;;;;;;18.25;10.10;;;16.40;56.20;;;;;;5112736;28;20085;-80
2022/10/22 05:52:28;;;;;;;17.48;9.52;;;16.30;55.90;;;;;;5111488;28;20020;-80
2022/10/22 05:54:53;;;;;;;16.23;10.10;;;16.40;56.10;;;;;;5112075;28;20025;-81
2022/10/22 05:57:19;;;;;;;18.58;9.80;;;16.60;56.00;;;;;;5112267;28;20073;-80
2022/10/22 05:59:45;;;;;;;16.77;10.32;;;16.50;56.50;;;;;;5111095;28;20020;-80
2022/10/22 06:02:10;;;;;;;15.63;9.90;;;16.40;56.50;;;;;;5112728;28;20108;-80
2022/10/22 06:04:36;;;;;;;15.88;10.15;;;16.40;56.30;;;;;;5116864;28;20028;-79
2022/10/22 06:07:02;;;;;;;15.75;10.55;;;16.50;56.20;;;;;;5115944;28;20031;-81
2022/10/22 06:09:33;;;;;;;22.02;12.60;;;16.60;56.10;;;;;;5116919;28;20031;-79
2022/10/22 06:11:58;;;;;;;;;;;16.70;56.10;;;;;;5116392;28;20019;-80
2022/10/22 06:14:24;;;;;;;17.65;11.20;;;16.80;56.20;;;;;;5116965;28;19899;-79
2022/10/22 06:16:50;;;;;;;18.88;11.45;;;16.90;56.20;;;;;;5116755;28;20024;-80
2022/10/22 06:19:18;;;;;;;20.30;11.65;;;16.90;56.20;;;;;;5115483;28;20042;-80
2022/10/22 06:21:45;;;;;;;20.95;12.23;;;17.00;56.40;;;;;;5116614;28;20032;-81
2022/10/22 06:24:11;;;;;;;19.30;11.65;;;17.00;56.20;;;;;;4394912;28;10000676;-78
2022/10/22 06:26:36;;;;;;;14.38;9.75;;;16.70;57.30;;;;;;5094112;28;20370;-80
2022/10/22 06:29:03;;;;;;;16.20;9.52;;;16.90;57.20;;;;;;5093831;28;20423;-80
2022/10/22 06:31:35;;;;;;;19.10;10.65;;;17.10;57.00;;;;;;5093127;28;20020;-79
2022/10/22 06:34:01;;;;;;;14.52;9.95;;;17.40;57.10;;;;;;5093557;28;20031;-81
2022/10/22 06:36:27;;;;;;;15.32;9.45;;;17.60;56.70;;;;;;5094224;28;20031;-79
2022/10/22 06:38:54;;;;;;;15.27;9.95;;;17.70;55.90;;;;;;5094059;28;20024;-80
2022/10/22 06:41:20;;;;;;;14.20;9.20;;;17.80;55.40;;;;;;5094556;28;20036;-82
2022/10/22 06:43:46;;;;;;;15.98;9.25;;;17.70;55.30;;;;;;5092230;28;20536;-82
2022/10/22 06:46:14;;;;;;;16.13;9.48;;;17.90;55.30;;;;;;5093963;28;20458;-80
2022/10/22 06:48:40;;;;;;;15.68;9.23;;;18.00;55.40;;;;;;5093448;28;20150;-81
2022/10/22 06:51:10;;;;;;;15.48;9.43;;;18.10;55.60;;;;;;5092173;28;20111;-80
2022/10/22 06:53:38;;;;;;;13.38;8.63;;;18.20;55.50;;;;;;5093012;28;20024;-83
2022/10/22 06:56:08;;;;;;;14.25;9.45;;;18.30;55.30;;;;;;5092798;28;20012;-79
2022/10/22 06:58:34;;;;;;;15.85;9.18;;;18.40;55.40;;;;;;5094054;28;20052;-82
2022/10/22 07:01:05;;;;;;;14.40;8.70;;;18.40;54.90;;;;;;5092784;28;20040;-80
2022/10/22 07:03:30;;;;;;;13.48;8.27;;;18.10;55.80;;;;;;5093466;28;20048;-81
2022/10/22 07:06:08;;;;;;;13.75;8.57;;;17.60;56.20;;;;;;5095878;28;20070;-80
2022/10/22 07:08:37;;;;;;;16.02;9.07;;;16.80;57.90;;;;;;5093030;28;20357;-81
2022/10/22 07:11:08;;;;;;;17.38;9.48;;;17.10;58.20;;;;;;5094606;28;20024;-81
2022/10/22 07:13:34;;;;;;;13.80;9.20;;;17.70;57.50;;;;;;5095299;28;20035;-81
2022/10/22 07:16:00;;;;;;;15.07;8.85;;;18.20;56.40;;;;;;5094582;28;20573;-80
2022/10/22 07:18:26;;;;;;;12.40;7.85;;;18.60;55.50;;;;;;5093242;28;20027;-80
2022/10/22 07:20:52;;;;;;;12.52;8.20;;;18.90;54.70;;;;;;5093230;28;20043;-81
2022/10/22 07:23:18;;;;;;;18.50;7.97;;;19.10;54.80;;;;;;5095339;28;20024;-81
2022/10/22 07:25:43;;;;;;;15.05;8.82;;;18.90;54.60;;;;;;5093656;28;20024;-81
2022/10/22 07:28:10;;;;;;;28.75;10.00;;;18.50;54.40;;;;;;5094214;28;20023;-80
2022/10/22 07:30:37;;;;;;;47.13;11.07;;;18.40;55.20;;;;;;5097248;28;20016;-81
2022/10/22 07:33:02;;;;;;;14.27;8.85;;;18.30;55.30;;;;;;4742646;28;10000192;-82
2022/10/22 07:35:28;;;;;;;14.85;8.88;;;18.50;55.50;;;;;;5091129;28;20474;-79
2022/10/22 07:37:54;;;;;;;16.52;9.88;;;18.90;54.60;;;;;;5100681;28;20039;-79
2022/10/22 07:40:20;;;;;;;14.75;9.32;;;19.10;54.10;;;;;;5090744;28;20039;-81
2022/10/22 07:42:45;;;;;;;17.35;8.90;;;19.40;54.30;;;;;;5092334;28;20028;-82
2022/10/22 07:45:11;;;;;;;23.17;15.00;;;19.50;53.60;;;;;;5092627;28;20039;-82
2022/10/22 07:47:37;;;;;;;13.88;8.60;;;19.40;53.20;;;;;;5092844;28;20043;-82
2022/10/22 07:50:04;;;;;;;14.93;8.68;;;18.20;54.60;;;;;;5103259;28;20381;-81
2022/10/22 07:52:29;;;;;;;15.48;8.98;;;17.50;57.00;;;;;;5112574;27;20022;-82
2022/10/22 07:54:55;;;;;;;14.73;10.18;;;17.40;57.30;;;;;;5109843;28;20031;-83
2022/10/22 07:57:21;;;;;;;13.90;9.43;;;17.10;58.30;;;;;;5099478;28;20119;-84
2022/10/22 07:59:48;;;;;;;22.42;9.38;;;17.40;58.90;;;;;;5094608;28;20062;-82
2022/10/22 08:02:13;;;;;;;18.50;9.40;;;18.00;58.00;;;;;;5097674;28;20035;-81
2022/10/22 08:04:39;;;;;;;12.10;8.30;;;18.70;56.20;;;;;;5100450;28;20031;-83
2022/10/22 08:07:05;;;;;;;11.77;8.15;;;19.00;54.80;;;;;;5113660;28;20023;-82
2022/10/22 08:09:31;;;;;;;17.15;9.35;;;18.60;55.70;;;;;;5105282;27;20042;-80
2022/10/22 08:11:56;;;;;;;15.10;9.07;;;18.50;56.90;;;;;;5098513;28;20485;-81
2022/10/22 08:14:22;;;;;;;14.10;9.48;;;18.50;56.80;;;;;;5108738;27;20030;-80
2022/10/22 08:16:48;;;;;;;17.20;9.68;;;18.80;56.40;;;;;;5108883;27;21598;-81
2022/10/22 08:19:17;;;;;;;19.70;10.02;;;19.10;54.90;;;;;;5106233;27;20400;-81
2022/10/22 08:21:44;;;;;;;15.45;9.40;;;19.40;54.40;;;;;;5112234;28;20063;-80
2022/10/22 08:24:11;;;;;;;14.68;9.48;;;19.70;53.80;;;;;;5111930;28;20027;-81
2022/10/22 08:26:36;;;;;;;15.55;9.57;;;19.60;54.00;;;;;;5114270;28;20080;-79
2022/10/22 08:29:02;;;;;;;17.35;11.10;;;19.90;54.30;;;;;;5114471;28;20023;-80
2022/10/22 08:31:28;;;;;;;16.08;10.20;;;20.00;53.40;;;;;;5113440;28;20052;-82
2022/10/22 08:33:53;;;;;;;16.48;10.18;;;19.90;53.90;;;;;;5108218;28;20027;-83
2022/10/22 08:36:19;;;;;;;15.75;9.02;;;20.10;53.80;;;;;;5109413;28;20016;-82
2022/10/22 08:38:45;;;;;;;14.77;9.32;;;20.30;53.20;;;;;;5094428;28;20055;-81
2022/10/22 08:41:17;;;;;;;15.32;9.60;;;20.50;53.10;;;;;;5094055;28;20081;-82
2022/10/22 08:43:58;;;;;;;12.85;8.50;;;20.70;53.00;;;;;;5092930;28;20028;-81
2022/10/22 08:46:26;;;;;;;;;;;20.40;52.90;;;;;;5093195;28;20046;-84
2022/10/22 08:48:56;;;;;;;13.15;8.63;;;19.90;52.70;;;;;;5094235;28;19986;-84
2022/10/22 08:51:24;;;;;;;16.63;8.82;;;18.80;54.60;;;;;;5093917;28;20023;-81
2022/10/22 08:53:51;;;;;;;12.05;8.38;;;19.00;55.50;;;;;;5093951;28;20028;-84
2022/10/22 08:56:17;;;;;;;15.20;8.48;;;19.40;54.20;;;;;;5093962;28;20054;-80
2022/10/22 08:59:11;;;;;;;12.82;8.50;;;19.60;54.20;;;;;;5092506;28;20055;-84
2022/10/22 09:01:42;;;;;;;15.75;8.50;;;19.40;52.80;;;;;;5085479;28;20032;-81
2022/10/22 09:04:26;;;;;;;11.80;8.40;;;19.00;53.10;;;;;;5092796;28;20396;-81
2022/10/22 09:06:52;;;;;;;14.98;8.18;;;18.60;53.30;;;;;;5092729;28;20030;-79
2022/10/22 09:09:19;;;;;;;14.20;8.32;;;18.30;54.20;;;;;;5093428;28;20032;-83
2022/10/22 09:11:50;;;;;;;14.77;9.27;;;18.50;54.90;;;;;;5093640;28;20056;-82
2022/10/22 09:14:19;;;;;;;14.82;9.38;;;18.30;54.60;;;;;;5092547;28;20020;-82
2022/10/22 09:16:50;;;;;;;15.93;9.57;;;18.30;54.10;;;;;;5093567;28;20028;-83
2022/10/22 09:19:38;;;;;;;14.15;9.23;;;18.70;54.30;;;;;;5093020;28;20034;-80
2022/10/22 09:22:43;;;;;;;13.40;8.85;;;19.30;52.90;;;;;;5110264;28;20122;-80
2022/10/22 09:25:11;;;;;;;14.70;8.18;;;19.90;53.30;;;;;;5114361;28;20024;-87
2022/10/22 09:27:37;;;;;;;13.75;9.10;;;19.60;52.60;;;;;;5113820;28;20027;-82
2022/10/22 09:30:03;;;;;;;17.73;8.98;;;19.10;53.80;;;;;;5113405;28;20027;-82
2022/10/22 09:32:30;;;;;;;19.92;11.05;;;19.20;54.30;;;;;;5112945;28;20026;-81
2022/10/22 09:34:57;;;;;;;16.38;9.00;;;19.30;54.30;;;;;;5112587;28;20026;-82
2022/10/22 09:37:28;;;;;;;15.88;9.82;;;19.40;53.50;;;;;;5112441;28;20020;-80
2022/10/22 09:39:57;;;;;;;15.50;9.70;;;19.40;53.50;;;;;;5108220;28;20036;-81
2022/10/22 09:42:24;;;;;;;15.85;9.52;;;19.20;53.40;;;;;;5101510;28;20020;-82
2022/10/22 09:44:57;;;;;;;15.38;9.43;;;19.50;53.90;;;;;;5107271;28;20027;-81
2022/10/22 09:47:40;;;;;;;15.05;10.15;;;19.90;52.60;;;;;;5096562;28;20024;-84
2022/10/22 09:50:37;;;;;;;14.73;9.25;;;19.90;53.40;;;;;;5111587;28;20023;-82
2022/10/22 09:53:26;;;;;;;16.25;9.88;;;20.20;52.90;;;;;;5111235;28;20028;-89
2022/10/22 09:55:55;;;;;;;19.75;10.63;;;20.60;52.00;;;;;;5097361;28;20048;-86
2022/10/22 09:58:21;;;;;;;19.38;11.25;;;20.30;52.00;;;;;;5097253;28;20016;-80
2022/10/22 10:00:54;;;;;;;16.67;9.82;;;20.20;52.50;;;;;;5113325;28;20426;-81
2022/10/22 10:03:26;;;;;;;14.82;10.10;;;20.30;52.50;;;;;;5113194;28;20022;-82
2022/10/22 10:05:54;;;;;;;17.63;11.10;;;20.00;52.30;;;;;;5096714;28;20020;-82
2022/10/22 10:08:21;;;;;;;17.35;11.43;;;19.80;53.30;;;;;;5106173;28;20024;-82
2022/10/22 10:10:59;;;;;;;16.52;11.25;;;19.90;53.00;;;;;;5094604;28;20034;-81
2022/10/22 10:13:42;;;;;;;16.95;11.50;;;19.80;53.20;;;;;;5094196;28;20023;-82
2022/10/22 10:16:31;;;;;;;21.10;11.27;;;20.00;53.20;;;;;;4759533;28;10000128;-82
2022/10/22 10:19:05;;;;;;;17.00;11.30;;;19.90;52.70;;;;;;5113203;28;20023;-80
2022/10/22 10:21:51;;;;;;;18.25;10.73;;;20.00;53.00;;;;;;5107280;28;20051;-88
2022/10/22 10:24:46;;;;;;;17.80;10.07;;;19.70;52.70;;;;;;5092611;28;20118;-80
2022/10/22 10:27:47;;;;;;;17.33;11.30;;;19.50;55.00;;;;;;5108721;28;20008;-79
2022/10/22 10:30:17;;;;;;;17.10;11.00;;;19.60;53.90;;;;;;5105606;28;20031;-83
2022/10/22 10:33:20;;;;;;;21.25;11.65;;;20.10;54.30;;;;;;5112783;28;20016;-82
2022/10/22 10:36:14;;;;;;;20.13;10.75;;;20.80;52.80;;;;;;5103767;28;20043;-80
2022/10/22 10:39:03;;;;;;;16.60;11.32;;;21.40;51.90;;;;;;5105955;28;20362;-82
2022/10/22 10:41:51;;;;;;;19.25;11.25;;;21.70;51.40;;;;;;5097835;28;20088;-79
2022/10/22 10:44:38;;;;;;;19.75;11.60;;;21.70;51.10;;;;;;5094126;28;20038;-81
2022/10/22 10:47:41;;;;;;;20.92;11.23;;;21.00;51.30;;;;;;5107812;28;20366;-85
2022/10/22 10:50:36;;;;;;;18.48;11.43;;;20.90;52.00;;;;;;5109690;28;20039;-81
2022/10/22 10:53:34;;;;;;;18.30;11.65;;;20.30;52.30;;;;;;5014176;28;20057;-79
2022/10/22 10:56:07;;;;;;;24.05;12.63;;;20.50;53.00;;;;;;5029821;28;20021;-79
2022/10/22 10:58:39;;;;;;;40.20;14.80;;;20.90;52.00;;;;;;5020538;28;20069;-82
2022/10/22 11:01:31;;;;;;;21.80;13.50;;;20.50;52.50;;;;;;5011359;28;20021;-80
2022/10/22 11:04:05;;;;;;;16.00;11.30;;;20.40;52.00;;;;;;5006305;28;20044;-84
2022/10/22 11:06:33;;;;;;;21.40;13.00;;;20.20;53.50;;;;;;5029394;28;20033;-83
2022/10/22 11:09:22;;;;;;;18.83;11.18;;;20.30;52.60;;;;;;5029554;28;20416;-79
2022/10/22 11:11:57;;;;;;;20.60;11.70;;;20.00;53.10;;;;;;5024581;28;20492;-81
2022/10/22 11:14:48;;;;;;;18.92;14.70;;;20.00;54.50;;;;;;5011429;28;20128;-82
2022/10/22 11:17:16;;;;;;;18.08;11.50;;;20.80;53.90;;;;;;5030861;28;20397;-79
2022/10/22 11:20:01;;;;;;;20.15;12.30;;;21.40;52.20;;;;;;5011998;28;20491;-80
2022/10/22 11:22:42;;;;;;;20.73;12.07;;;21.30;51.60;;;;;;5012702;28;20025;-80
2022/10/22 11:25:11;;;;;;;20.42;11.35;;;21.40;52.10;;;;;;5030444;28;20017;-79
2022/10/22 11:27:52;;;;;;;21.98;11.90;;;21.60;51.50;;;;;;5012066;28;20886;-78
2022/10/22 11:30:20;;;;;;;22.23;11.85;;;21.60;51.70;;;;;;5077812;28;20108;-81
2022/10/22 11:32:54;;;;;;;16.83;11.48;;;21.80;52.20;;;;;;5112117;28;20062;-79
2022/10/22 11:35:30;;;;;;;17.85;12.10;;;22.00;51.50;;;;;;5110893;28;20097;-77
2022/10/22 11:37:57;;;;;;;19.40;11.68;;;22.00;50.40;;;;;;5110250;28;20538;-79
2022/10/22 11:40:34;;;;;;;20.80;11.80;;;21.30;51.80;;;;;;5111520;28;20040;-80
2022/10/22 11:43:09;;;;;;;19.73;12.15;;;21.10;52.60;;;;;;5108470;28;20024;-80
2022/10/22 11:45:38;;;;;;;25.38;11.85;;;21.30;52.30;;;;;;5111026;28;20047;-80
2022/10/22 11:48:09;;;;;;;21.08;12.05;;;21.20;51.90;;;;;;5097076;28;20085;-80
2022/10/22 11:50:58;;;;;;;22.40;13.40;;;20.90;53.20;;;;;;5111114;28;20466;-79
2022/10/22 11:53:24;;;;;;;19.45;11.52;;;21.20;53.00;;;;;;5110694;28;20083;-79
2022/10/22 11:55:52;;;;;;;22.00;13.95;;;21.70;51.90;;;;;;5113584;28;20031;-82
2022/10/22 11:58:27;;;;;;;18.83;13.02;;;21.50;51.90;;;;;;5111781;28;20023;-80
2022/10/22 12:00:56;;;;;;;21.42;12.75;;;21.40;52.40;;;;;;5111478;28;20544;-79
2022/10/22 12:03:31;;;;;;;24.90;12.68;;;21.90;52.10;;;;;;5109586;28;20502;-80
2022/10/22 12:06:12;;;;;;;20.50;12.23;;;22.40;51.40;;;;;;4745121;28;9999990;-78
2022/10/22 12:08:50;;;;;;;19.83;12.20;;;22.80;51.10;;;;;;5116912;27;20016;-82
2022/10/22 12:11:18;;;;;;;23.83;12.57;;;22.90;50.00;;;;;;5109091;28;20051;-81
2022/10/22 12:14:02;;;;;;;23.65;13.07;;;22.90;50.80;;;;;;5110016;28;20454;-80
2022/10/22 12:16:39;;;;;;;20.50;13.20;;;22.90;50.60;;;;;;5109472;28;20140;-80
2022/10/22 12:19:16;;;;;;;19.50;12.80;;;22.90;51.00;;;;;;5110177;28;20484;-80
2022/10/22 12:21:47;;;;;;;20.70;13.00;;;23.10;50.60;;;;;;5110175;28;20039;-79
2022/10/22 12:24:18;;;;;;;21.83;12.38;;;23.00;50.70;;;;;;5108830;28;20019;-81
2022/10/22 12:26:45;;;;;;;79.30;18.88;;;23.00;50.50;;;;;;5110398;28;20464;-79
2022/10/22 12:29:13;;;;;;;68.60;19.02;;;22.80;50.40;;;;;;5109315;28;20036;-79
2022/10/22 12:31:41;;;;;;;20.60;12.20;;;22.60;51.30;;;;;;5109532;28;20030;-81
2022/10/22 12:34:11;;;;;;;36.00;15.35;;;22.70;51.30;;;;;;5109996;28;20128;-80
2022/10/22 12:36:37;;;;;;;;;;;22.90;51.20;;;;;;5110597;28;20016;-80
2022/10/22 12:39:17;;;;;;;34.65;13.65;;;23.00;51.10;;;;;;5110142;28;19911;-80
2022/10/22 12:41:43;;;;;;;41.75;15.05;;;23.00;50.40;;;;;;5110997;28;20028;-80
2022/10/22 12:44:13;;;;;;;19.55;11.68;;;22.80;50.70;;;;;;5109403;28;20038;-79
2022/10/22 12:46:39;;;;;;;21.70;12.60;;;22.90;50.80;;;;;;5110672;28;20054;-79
2022/10/22 12:49:12;;;;;;;19.67;12.15;;;22.90;50.90;;;;;;5107949;27;20053;-80
2022/10/22 12:51:38;;;;;;;16.67;11.55;;;23.00;51.70;;;;;;5094037;28;20024;-82
2022/10/22 12:54:09;;;;;;;16.52;11.75;;;23.00;51.50;;;;;;5094515;28;20232;-79